createdAt,value
2023-03-26T00:01:37.109Z,50.62
2023-03-26T00:04:07.262Z,50.75
2023-03-26T00:06:39.948Z,50.61
2023-03-26T00:09:13.451Z,50.66
2023-03-26T00:11:41.373Z,50.75
2023-03-26T00:14:13.771Z,50.52
2023-03-26T00:16:44.361Z,50.53
2023-03-26T00:19:12.740Z,50.39
2023-03-26T00:21:41.497Z,50.39
2023-03-26T00:24:15.402Z,50.25
2023-03-26T00:26:43.611Z,50.13
2023-03-26T00:29:12.045Z,50.99
2023-03-26T00:31:39.950Z,50.90
2023-03-26T00:34:07.207Z,51.64
2023-03-26T00:36:36.005Z,51.59
2023-03-26T00:39:06.146Z,51.95
2023-03-26T00:41:37.076Z,52.18
2023-03-26T00:44:04.827Z,52.09
2023-03-26T00:46:32.459Z,51.97
2023-03-26T00:49:00.642Z,52.22
2023-03-26T00:51:29.326Z,51.67
2023-03-26T00:53:57.809Z,51.82
2023-03-26T00:56:26.079Z,51.79
2023-03-26T00:58:53.143Z,51.99
2023-03-26T01:01:27.931Z,51.75
2023-03-26T01:04:08.200Z,51.71
2023-03-26T01:06:41.501Z,51.57
2023-03-26T01:09:21.352Z,51.46
2023-03-26T01:11:49.937Z,50.83
2023-03-26T01:14:23.527Z,51.07
2023-03-26T01:16:56.937Z,51.35
2023-03-26T01:19:57.200Z,51.01
2023-03-26T01:22:27.365Z,51.03
2023-03-26T01:24:56.646Z,51.37
2023-03-26T01:27:50.866Z,51.59
2023-03-26T01:30:23.031Z,51.73
2023-03-26T01:33:16.466Z,52.17
2023-03-26T01:36:30.760Z,52.13
2023-03-26T01:39:20.578Z,51.95
2023-03-26T01:41:52.022Z,51.85
2023-03-26T01:44:28.710Z,51.52
2023-03-26T01:46:56.898Z,51.72
2023-03-26T01:49:24.107Z,51.85
2023-03-26T01:51:51.569Z,52.02
2023-03-26T01:54:21.536Z,52.33
2023-03-26T01:57:13.497Z,52.56
2023-03-26T02:00:01.945Z,52.74
2023-03-26T02:03:23.060Z,53.42
2023-03-26T02:06:04.700Z,53.47
2023-03-26T02:08:41.403Z,53.79
2023-03-26T02:11:16.047Z,54.30
2023-03-26T02:13:46.331Z,54.22
2023-03-26T02:16:18.737Z,54.35
2023-03-26T02:18:51.429Z,54.34
2023-03-26T02:21:22.939Z,54.45
2023-03-26T02:23:58.016Z,53.99
2023-03-26T02:26:25.854Z,53.88
2023-03-26T02:28:59.243Z,54.54
2023-03-26T02:31:26.678Z,54.49
2023-03-26T02:33:56.676Z,54.64
2023-03-26T02:36:27.945Z,54.66
2023-03-26T02:39:00.311Z,54.22
2023-03-26T02:41:29.621Z,54.38
2023-03-26T02:44:05.754Z,55.96
2023-03-26T02:46:51.330Z,56.20
2023-03-26T02:49:41.538Z,56.25
2023-03-26T02:52:09.381Z,56.42
2023-03-26T02:54:37.362Z,56.69
2023-03-26T02:57:13.119Z,56.58
2023-03-26T03:00:09.090Z,56.73
2023-03-26T03:02:38.714Z,56.19
2023-03-26T03:05:31.513Z,55.99
2023-03-26T03:08:18.433Z,55.45
2023-03-26T03:11:23.616Z,55.63
2023-03-26T03:13:53.684Z,55.07
2023-03-26T03:16:23.812Z,55.12
2023-03-26T03:18:58.075Z,55.58
2023-03-26T03:21:46.152Z,56.47
2023-03-26T03:24:14.053Z,56.63
2023-03-26T03:26:46.287Z,56.24
2023-03-26T03:29:33.619Z,56.40
2023-03-26T03:32:22.755Z,56.45
2023-03-26T03:34:52.547Z,56.61
2023-03-26T03:37:20.671Z,56.49
2023-03-26T03:39:52.286Z,56.54
2023-03-26T03:42:22.134Z,56.18
2023-03-26T03:44:51.954Z,57.17
2023-03-26T03:47:39.122Z,57.33
2023-03-26T03:50:08.828Z,57.39
2023-03-26T03:52:37.882Z,58.21
2023-03-26T03:55:06.150Z,57.61
2023-03-26T03:57:41.890Z,57.32
2023-03-26T04:00:15.194Z,56.71
2023-03-26T04:02:54.689Z,57.24
2023-03-26T04:05:22.544Z,57.39
2023-03-26T04:07:51.256Z,57.95
2023-03-26T04:10:27.615Z,57.44
2023-03-26T04:13:14.550Z,57.82
2023-03-26T04:16:13.735Z,57.59
2023-03-26T04:18:41.212Z,57.23
2023-03-26T04:21:15.972Z,56.94
2023-03-26T04:23:45.269Z,56.78
2023-03-26T04:26:25.222Z,56.52
2023-03-26T04:29:24.013Z,55.62
2023-03-26T04:32:06.423Z,55.83
2023-03-26T04:34:34.698Z,55.40
2023-03-26T04:37:16.642Z,55.49
2023-03-26T04:39:50.187Z,55.49
2023-03-26T04:42:41.811Z,55.37
2023-03-26T04:45:22.902Z,55.42
2023-03-26T04:48:00.050Z,54.87
2023-03-26T04:50:27.412Z,55.09
2023-03-26T04:52:57.412Z,55.24
2023-03-26T04:56:21.896Z,55.27
2023-03-26T04:59:30.173Z,54.95
2023-03-26T05:02:00.149Z,54.77
2023-03-26T05:04:31.407Z,54.75
2023-03-26T05:06:59.983Z,54.99
2023-03-26T05:09:40.453Z,54.96
2023-03-26T05:12:13.233Z,55.20
2023-03-26T05:14:54.189Z,54.82
2023-03-26T05:17:42.647Z,54.66
2023-03-26T05:20:22.308Z,54.70
2023-03-26T05:22:50.820Z,55.22
2023-03-26T05:25:30.166Z,54.62
2023-03-26T05:27:58.748Z,54.93
2023-03-26T05:30:31.995Z,55.02
2023-03-26T05:33:04.367Z,54.71
2023-03-26T05:35:41.125Z,54.65
2023-03-26T05:38:09.581Z,54.62
2023-03-26T05:40:37.100Z,54.64
2023-03-26T05:43:06.133Z,54.70
2023-03-26T05:45:39.965Z,54.83
2023-03-26T05:48:28.029Z,54.93
2023-03-26T05:50:57.579Z,54.55
2023-03-26T05:53:28.277Z,54.61
2023-03-26T05:56:14.419Z,54.30
2023-03-26T05:59:00.489Z,54.44
2023-03-26T06:01:46.080Z,54.62
2023-03-26T06:04:17.164Z,54.10
2023-03-26T06:07:13.618Z,53.33
2023-03-26T06:09:45.225Z,53.07
2023-03-26T06:12:12.460Z,52.61
2023-03-26T06:14:42.961Z,52.68
2023-03-26T06:17:18.440Z,52.39
2023-03-26T06:20:12.459Z,52.13
2023-03-26T06:22:43.670Z,51.79
2023-03-26T06:25:41.433Z,51.06
2023-03-26T06:28:27.047Z,50.59
2023-03-26T06:31:07.087Z,50.80
2023-03-26T06:33:41.971Z,50.72
2023-03-26T06:36:11.432Z,50.12
2023-03-26T06:38:38.832Z,50.70
2023-03-26T06:41:08.023Z,50.43
2023-03-26T06:43:51.432Z,50.35
2023-03-26T06:46:36.757Z,50.41
2023-03-26T06:49:16.147Z,50.93
2023-03-26T06:52:06.094Z,51.06
2023-03-26T06:54:46.620Z,51.09
2023-03-26T06:57:33.050Z,50.75
2023-03-26T07:00:29.234Z,50.77
2023-03-26T07:03:23.795Z,49.74
2023-03-26T07:06:17.483Z,49.87
2023-03-26T07:09:04.352Z,50.17
2023-03-26T07:11:37.301Z,50.03
2023-03-26T07:14:24.650Z,49.05
2023-03-26T07:17:03.832Z,48.62
2023-03-26T07:19:46.400Z,47.63
2023-03-26T07:22:22.015Z,47.70
2023-03-26T07:25:15.577Z,47.25
2023-03-26T07:28:25.464Z,46.78
2023-03-26T07:31:51.700Z,47.08
2023-03-26T07:35:07.384Z,47.28
2023-03-26T07:38:34.105Z,47.08
2023-03-26T07:41:28.213Z,48.02
2023-03-26T07:44:23.933Z,48.05
2023-03-26T07:47:27.741Z,47.87
2023-03-26T07:50:23.061Z,47.85
2023-03-26T07:53:08.573Z,47.49
2023-03-26T07:56:05.316Z,47.24
2023-03-26T07:59:31.535Z,47.48
2023-03-26T08:02:31.975Z,47.97
2023-03-26T08:05:45.993Z,47.73
2023-03-26T08:09:17.493Z,47.48
2023-03-26T08:13:12.401Z,46.80
2023-03-26T08:15:50.023Z,46.62
2023-03-26T08:18:31.409Z,46.57
2023-03-26T08:21:14.078Z,46.59
2023-03-26T08:24:09.573Z,46.58
2023-03-26T08:27:18.777Z,45.76
2023-03-26T08:30:12.796Z,45.18
2023-03-26T08:32:40.974Z,45.80
2023-03-26T08:35:13.478Z,45.83
2023-03-26T08:37:40.588Z,45.47
2023-03-26T08:40:09.788Z,45.29
2023-03-26T08:43:12.714Z,44.91
2023-03-26T08:46:15.531Z,44.58
2023-03-26T08:48:48.658Z,44.31
2023-03-26T08:51:34.397Z,45.38
2023-03-26T08:54:56.846Z,44.64
2023-03-26T08:57:48.781Z,44.58
2023-03-26T09:00:54.785Z,43.91
2023-03-26T09:03:38.327Z,44.49
2023-03-26T09:06:30.148Z,44.17
2023-03-26T09:09:43.939Z,44.27
2023-03-26T09:12:46.429Z,44.82
2023-03-26T09:15:38.158Z,44.43
2023-03-26T09:18:42.576Z,43.93
2023-03-26T09:21:37.924Z,43.66
2023-03-26T09:24:37.834Z,44.41
2023-03-26T09:27:36.296Z,44.66
2023-03-26T09:30:48.277Z,43.18
2023-03-26T09:34:06.960Z,41.74
2023-03-26T09:37:05.858Z,41.34
2023-03-26T09:40:13.244Z,40.57
2023-03-26T09:43:22.473Z,39.99
2023-03-26T09:46:27.188Z,39.72
2023-03-26T09:49:21.629Z,38.64
2023-03-26T09:52:16.098Z,38.66
2023-03-26T09:55:42.203Z,39.89
2023-03-26T09:58:46.137Z,40.19
2023-03-26T10:01:59.326Z,39.64
2023-03-26T10:05:02.200Z,39.03
2023-03-26T10:07:59.140Z,39.01
2023-03-26T10:10:56.044Z,38.90
2023-03-26T10:13:26.219Z,38.63
2023-03-26T10:16:14.438Z,38.83
2023-03-26T10:18:41.497Z,39.27
2023-03-26T10:21:41.226Z,39.61
2023-03-26T10:24:21.219Z,38.29
2023-03-26T10:27:19.813Z,37.70
2023-03-26T10:30:29.273Z,36.82
2023-03-26T10:33:55.854Z,36.30
2023-03-26T10:37:01.621Z,35.90
2023-03-26T10:39:44.029Z,34.76
2023-03-26T10:42:58.181Z,35.16
2023-03-26T10:46:05.436Z,34.58
2023-03-26T10:49:04.507Z,33.71
2023-03-26T10:51:54.952Z,33.56
2023-03-26T10:54:58.409Z,34.20
2023-03-26T10:57:34.821Z,33.82
2023-03-26T11:00:25.415Z,34.35
2023-03-26T11:03:43.975Z,33.47
2023-03-26T11:06:55.429Z,34.18
2023-03-26T11:09:55.074Z,34.45
2023-03-26T11:13:21.903Z,34.00
2023-03-26T11:16:11.240Z,33.99
2023-03-26T11:19:09.857Z,33.45
2023-03-26T11:21:59.541Z,32.21
2023-03-26T11:25:07.065Z,32.39
2023-03-26T11:28:09.747Z,32.19
2023-03-26T11:30:59.704Z,31.93
2023-03-26T11:33:37.028Z,32.79
2023-03-26T11:36:10.784Z,32.85
2023-03-26T11:38:43.734Z,32.39
2023-03-26T11:41:24.071Z,32.32
2023-03-26T11:44:00.854Z,31.34
2023-03-26T11:46:33.130Z,30.02
2023-03-26T11:49:11.153Z,28.05
2023-03-26T11:51:41.376Z,28.97
2023-03-26T11:54:12.713Z,28.69
2023-03-26T11:57:05.316Z,30.20
2023-03-26T11:59:58.060Z,31.59
2023-03-26T12:02:34.933Z,32.96
2023-03-26T12:05:13.407Z,32.33
2023-03-26T12:08:20.153Z,31.98
2023-03-26T12:11:02.561Z,32.45
2023-03-26T12:13:39.984Z,32.75
2023-03-26T12:16:15.967Z,32.86
2023-03-26T12:18:46.155Z,32.48
2023-03-26T12:21:18.403Z,32.73
2023-03-26T12:23:58.501Z,33.32
2023-03-26T12:26:47.051Z,33.43
2023-03-26T12:29:17.785Z,33.38
2023-03-26T12:31:58.990Z,33.55
2023-03-26T12:34:36.173Z,33.58
2023-03-26T12:37:06.906Z,33.37
2023-03-26T12:40:09.109Z,32.23
2023-03-26T12:44:47.003Z,32.11
2023-03-26T12:45:32.674Z,32.00
2023-03-26T12:48:03.881Z,32.36
2023-03-26T12:50:39.465Z,32.86
2023-03-26T12:53:16.032Z,33.02
2023-03-26T12:55:52.997Z,33.46
2023-03-26T12:58:38.100Z,33.72
2023-03-26T13:01:31.081Z,33.80
2023-03-26T13:04:19.660Z,34.16
2023-03-26T13:07:01.963Z,34.68
2023-03-26T13:09:58.190Z,35.38
2023-03-26T13:12:38.244Z,35.41
2023-03-26T13:15:18.233Z,35.14
2023-03-26T13:18:19.864Z,35.07
2023-03-26T13:21:21.301Z,35.14
2023-03-26T13:24:26.955Z,34.60
2023-03-26T13:27:44.246Z,35.30
2023-03-26T13:30:31.320Z,35.07
2023-03-26T13:33:19.578Z,34.87
2023-03-26T13:36:23.064Z,35.01
2023-03-26T13:39:22.066Z,35.58
2023-03-26T13:42:27.001Z,35.48
2023-03-26T13:45:23.766Z,34.82
2023-03-26T13:47:55.768Z,35.38
2023-03-26T13:50:34.376Z,35.92
2023-03-26T13:53:19.478Z,36.15
2023-03-26T13:55:52.927Z,37.96
2023-03-26T13:58:49.314Z,38.56
2023-03-26T14:01:23.413Z,38.93
2023-03-26T14:04:03.835Z,39.02
2023-03-26T14:06:46.830Z,39.66
2023-03-26T14:09:42.078Z,40.01
2023-03-26T14:12:56.947Z,40.40
2023-03-26T14:15:48.661Z,40.21
2023-03-26T14:19:29.428Z,40.73
2023-03-26T14:22:23.829Z,41.45
2023-03-26T14:25:02.855Z,44.20
2023-03-26T14:27:52.020Z,45.63
2023-03-26T14:31:00.001Z,46.47
2023-03-26T14:33:39.255Z,46.93
2023-03-26T14:36:25.990Z,46.83
2023-03-26T14:39:37.146Z,46.59
2023-03-26T14:42:30.063Z,47.39
2023-03-26T14:45:09.514Z,47.50
2023-03-26T14:48:48.444Z,48.11
2023-03-26T14:51:58.499Z,48.69
2023-03-26T14:54:31.486Z,48.80
2023-03-26T14:57:13.991Z,48.42
2023-03-26T14:59:52.333Z,47.73
2023-03-26T15:02:22.716Z,47.86
2023-03-26T15:05:14.212Z,48.23
2023-03-26T15:08:24.604Z,49.29
2023-03-26T15:11:32.970Z,48.66
2023-03-26T15:14:31.330Z,48.88
2023-03-26T15:17:23.390Z,48.73
2023-03-26T15:20:41.777Z,48.95
2023-03-26T15:23:53.623Z,50.09
2023-03-26T15:27:14.105Z,51.10
2023-03-26T15:30:28.464Z,51.06
2023-03-26T15:33:34.451Z,51.73
2023-03-26T15:37:10.933Z,51.80
2023-03-26T15:40:38.165Z,52.67
2023-03-26T15:43:16.266Z,52.62
2023-03-26T15:45:58.400Z,52.73
2023-03-26T15:48:51.732Z,52.13
2023-03-26T15:51:57.177Z,52.71
2023-03-26T15:54:45.673Z,53.10
2023-03-26T15:57:47.038Z,53.38
2023-03-26T16:00:25.409Z,54.54
2023-03-26T16:03:25.938Z,54.10
2023-03-26T16:06:11.364Z,54.73
2023-03-26T16:09:05.929Z,54.45
2023-03-26T16:11:58.829Z,55.27
2023-03-26T16:14:35.868Z,55.06
2023-03-26T16:17:06.680Z,55.22
2023-03-26T16:20:14.253Z,55.68
2023-03-26T16:22:56.786Z,56.16
2023-03-26T16:25:35.574Z,56.56
2023-03-26T16:28:27.746Z,56.79
2023-03-26T16:31:35.061Z,56.44
2023-03-26T16:34:21.511Z,56.36
2023-03-26T16:36:51.590Z,56.27
2023-03-26T16:39:41.827Z,56.00
2023-03-26T16:42:37.901Z,56.48
2023-03-26T16:45:23.257Z,56.48
2023-03-26T16:48:10.724Z,56.85
2023-03-26T16:51:11.434Z,57.39
2023-03-26T16:53:46.086Z,57.10
2023-03-26T16:56:17.970Z,57.19
2023-03-26T16:59:07.976Z,57.34
2023-03-26T17:01:48.404Z,57.34
2023-03-26T17:04:23.634Z,57.23
2023-03-26T17:07:08.990Z,57.04
2023-03-26T17:09:59.375Z,57.14
2023-03-26T17:12:43.016Z,56.89
2023-03-26T17:15:34.534Z,56.94
2023-03-26T17:18:08.055Z,56.92
2023-03-26T17:20:49.327Z,56.74
2023-03-26T17:23:51.268Z,56.31
2023-03-26T17:27:03.680Z,55.69
2023-03-26T17:30:21.456Z,55.46
2023-03-26T17:33:07.368Z,55.02
2023-03-26T17:35:49.307Z,55.11
2023-03-26T17:38:25.804Z,55.46
2023-03-26T17:40:59.629Z,55.93
2023-03-26T17:43:46.188Z,56.22
2023-03-26T17:46:33.113Z,56.36
2023-03-26T17:49:12.953Z,56.08
2023-03-26T17:52:21.492Z,56.61
2023-03-26T17:54:52.602Z,56.54
2023-03-26T17:57:27.300Z,56.37
2023-03-26T17:59:59.717Z,56.22
2023-03-26T18:02:42.781Z,55.71
2023-03-26T18:05:14.820Z,56.22
2023-03-26T18:08:03.666Z,56.22
2023-03-26T18:10:54.120Z,55.51
2023-03-26T18:13:57.048Z,55.78
2023-03-26T18:16:43.797Z,55.42
2023-03-26T18:19:22.650Z,54.55
2023-03-26T18:21:52.436Z,55.14
2023-03-26T18:24:38.067Z,55.28
2023-03-26T18:27:12.011Z,55.67
2023-03-26T18:30:01.651Z,56.29
2023-03-26T18:32:33.418Z,56.56
2023-03-26T18:35:20.450Z,56.28
2023-03-26T18:37:53.493Z,56.63
2023-03-26T18:40:24.499Z,56.38
2023-03-26T18:42:56.136Z,56.36
2023-03-26T18:45:32.766Z,55.91
2023-03-26T18:48:04.729Z,56.01
2023-03-26T18:50:41.675Z,55.67
2023-03-26T18:53:22.417Z,56.08
2023-03-26T18:55:51.660Z,56.22
2023-03-26T18:58:30.196Z,56.69
2023-03-26T19:01:04.955Z,55.85
2023-03-26T19:03:36.885Z,55.79
2023-03-26T19:06:10.154Z,55.60
2023-03-26T19:08:40.246Z,55.93
2023-03-26T19:11:10.534Z,56.16
2023-03-26T19:13:43.004Z,56.47
2023-03-26T19:16:26.649Z,56.20
2023-03-26T19:18:54.332Z,55.88
2023-03-26T19:21:23.556Z,55.84
2023-03-26T19:23:53.165Z,56.15
2023-03-26T19:26:20.597Z,55.82
2023-03-26T19:28:51.517Z,56.25
2023-03-26T19:31:30.229Z,56.07
2023-03-26T19:34:35.427Z,55.98
2023-03-26T19:37:23.795Z,56.24
2023-03-26T19:40:07.344Z,55.99
2023-03-26T19:42:44.038Z,55.80
2023-03-26T19:45:19.431Z,56.02
2023-03-26T19:47:57.482Z,56.52
2023-03-26T19:50:36.711Z,56.27
2023-03-26T19:53:19.248Z,55.78
2023-03-26T19:56:05.170Z,55.93
2023-03-26T19:58:35.394Z,56.28
2023-03-26T20:01:04.628Z,56.27
2023-03-26T20:03:43.391Z,56.40
2023-03-26T20:06:18.157Z,56.65
2023-03-26T20:08:45.943Z,56.49
2023-03-26T20:11:37.913Z,55.94
2023-03-26T20:14:17.924Z,55.94
2023-03-26T20:16:46.009Z,56.07
2023-03-26T20:19:15.474Z,56.21
2023-03-26T20:21:44.438Z,55.76
2023-03-26T20:24:15.792Z,55.24
2023-03-26T20:26:44.626Z,55.36
2023-03-26T20:29:13.334Z,54.97
2023-03-26T20:31:42.113Z,55.22
2023-03-26T20:34:22.171Z,55.67
2023-03-26T20:36:55.326Z,55.79
2023-03-26T20:39:24.872Z,56.67
2023-03-26T20:41:54.423Z,57.01
2023-03-26T20:44:22.639Z,56.97
2023-03-26T20:46:50.938Z,56.61
2023-03-26T20:49:18.646Z,56.56
2023-03-26T20:51:46.783Z,56.78
2023-03-26T20:54:21.541Z,56.27
2023-03-26T20:56:49.668Z,55.89
2023-03-26T20:59:26.803Z,55.78
2023-03-26T21:01:57.040Z,55.75
2023-03-26T21:04:26.146Z,56.07
2023-03-26T21:07:00.411Z,55.98
2023-03-26T21:09:35.456Z,56.13
2023-03-26T21:12:09.797Z,56.02
2023-03-26T21:14:41.796Z,56.18
2023-03-26T21:17:19.453Z,56.10
2023-03-26T21:19:48.066Z,56.25
2023-03-26T21:22:43.473Z,56.39
2023-03-26T21:25:53.163Z,56.43
2023-03-26T21:28:48.806Z,56.38
2023-03-26T21:31:21.702Z,56.22
2023-03-26T21:33:50.683Z,56.75
2023-03-26T21:36:23.113Z,57.22
2023-03-26T21:38:54.701Z,56.85
2023-03-26T21:42:05.377Z,56.99
2023-03-26T21:44:34.211Z,57.07
2023-03-26T21:47:01.740Z,57.48
2023-03-26T21:49:29.586Z,57.38
2023-03-26T21:51:57.191Z,57.26
2023-03-26T21:54:29.041Z,57.28
2023-03-26T21:57:29.119Z,56.88
2023-03-26T22:00:11.612Z,57.01
2023-03-26T22:03:11.898Z,56.43
2023-03-26T22:05:56.496Z,56.11
2023-03-26T22:08:44.099Z,56.15
2023-03-26T22:11:12.721Z,55.61
2023-03-26T22:13:40.015Z,54.93
2023-03-26T22:16:10.756Z,54.77
2023-03-26T22:18:38.262Z,55.48
2023-03-26T22:21:05.986Z,55.47
2023-03-26T22:23:34.281Z,55.78
2023-03-26T22:26:05.424Z,56.08
2023-03-26T22:28:32.493Z,56.72
2023-03-26T22:31:00.350Z,56.45
2023-03-26T22:33:27.664Z,56.30
2023-03-26T22:35:56.407Z,56.43
2023-03-26T22:38:23.732Z,56.62
2023-03-26T22:40:58.090Z,57.03
2023-03-26T22:43:25.465Z,56.87
2023-03-26T22:45:55.755Z,56.52
2023-03-26T22:48:24.059Z,56.82
2023-03-26T22:51:06.444Z,56.98
2023-03-26T22:53:34.360Z,56.52
2023-03-26T22:56:01.841Z,56.76
2023-03-26T22:58:29.284Z,57.20
2023-03-26T23:01:12.327Z,57.46
2023-03-26T23:03:39.660Z,57.68
2023-03-26T23:06:10.740Z,57.81
2023-03-26T23:08:39.612Z,57.61
2023-03-26T23:11:19.268Z,57.31
2023-03-26T23:13:47.859Z,57.08
2023-03-26T23:16:17.114Z,56.91
2023-03-26T23:18:45.442Z,56.74
2023-03-26T23:21:19.325Z,56.90
2023-03-26T23:23:47.720Z,57.12
2023-03-26T23:26:15.092Z,56.94
2023-03-26T23:28:43.244Z,56.58
2023-03-26T23:31:12.570Z,56.65
2023-03-26T23:33:46.110Z,56.56
2023-03-26T23:36:17.812Z,56.65
2023-03-26T23:38:47.343Z,57.15
2023-03-26T23:41:17.046Z,57.08
2023-03-26T23:43:53.803Z,57.17
2023-03-26T23:46:25.788Z,58.19
2023-03-26T23:48:53.437Z,57.89
2023-03-26T23:51:21.230Z,58.81
2023-03-26T23:53:49.487Z,59.00
2023-03-26T23:56:17.415Z,59.25
2023-03-26T23:58:44.776Z,58.95
